sensor_id;sensor_type;location;lat;lon;timestamp;temperature;humidity
27671;DHT22;15077;49.704;9.908;2023-03-30T00:00:41;14.80;58.40
27671;DHT22;15077;49.704;9.908;2023-03-30T00:03:08;14.80;58.40
27671;DHT22;15077;49.704;9.908;2023-03-30T00:05:35;14.80;58.40
27671;DHT22;15077;49.704;9.908;2023-03-30T00:08:03;14.80;58.40
27671;DHT22;15077;49.704;9.908;2023-03-30T00:10:29;14.70;58.30
27671;DHT22;15077;49.704;9.908;2023-03-30T00:12:59;14.70;58.40
27671;DHT22;15077;49.704;9.908;2023-03-30T00:15:27;14.70;58.50
27671;DHT22;15077;49.704;9.908;2023-03-30T00:17:54;14.70;58.50
27671;DHT22;15077;49.704;9.908;2023-03-30T00:20:21;14.60;58.50
27671;DHT22;15077;49.704;9.908;2023-03-30T00:22:52;14.60;58.60
27671;DHT22;15077;49.704;9.908;2023-03-30T00:25:19;14.60;58.70
27671;DHT22;15077;49.704;9.908;2023-03-30T00:27:45;14.60;58.70
27671;DHT22;15077;49.704;9.908;2023-03-30T00:30:13;14.60;58.80
27671;DHT22;15077;49.704;9.908;2023-03-30T00:32:42;14.60;58.80
27671;DHT22;15077;49.704;9.908;2023-03-30T00:35:09;14.60;58.80
27671;DHT22;15077;49.704;9.908;2023-03-30T00:37:37;14.60;58.80
27671;DHT22;15077;49.704;9.908;2023-03-30T00:40:08;14.60;58.80
27671;DHT22;15077;49.704;9.908;2023-03-30T00:42:38;14.60;58.90
27671;DHT22;15077;49.704;9.908;2023-03-30T00:45:15;14.70;58.90
27671;DHT22;15077;49.704;9.908;2023-03-30T00:47:56;14.70;59.00
27671;DHT22;15077;49.704;9.908;2023-03-30T00:50:31;14.70;59.10
27671;DHT22;15077;49.704;9.908;2023-03-30T00:53:15;14.70;59.10
27671;DHT22;15077;49.704;9.908;2023-03-30T00:55:45;14.70;59.00
27671;DHT22;15077;49.704;9.908;2023-03-30T00:58:16;14.80;59.60
27671;DHT22;15077;49.704;9.908;2023-03-30T01:00:44;14.90;59.10
27671;DHT22;15077;49.704;9.908;2023-03-30T01:03:22;14.90;59.10
27671;DHT22;15077;49.704;9.908;2023-03-30T01:05:54;15.00;59.10
27671;DHT22;15077;49.704;9.908;2023-03-30T01:08:23;15.00;59.20
27671;DHT22;15077;49.704;9.908;2023-03-30T01:10:52;15.10;59.30
27671;DHT22;15077;49.704;9.908;2023-03-30T01:13:19;15.10;59.30
27671;DHT22;15077;49.704;9.908;2023-03-30T01:18:59;15.20;59.30
27671;DHT22;15077;49.704;9.908;2023-03-30T01:29:13;15.20;59.20
27671;DHT22;15077;49.704;9.908;2023-03-30T01:32:08;15.30;59.20
27671;DHT22;15077;49.704;9.908;2023-03-30T01:40:06;15.40;59.60
27671;DHT22;15077;49.704;9.908;2023-03-30T01:48:29;15.50;59.50
27671;DHT22;15077;49.704;9.908;2023-03-30T01:51:07;15.50;59.50
27671;DHT22;15077;49.704;9.908;2023-03-30T01:59:09;15.50;59.50
27671;DHT22;15077;49.704;9.908;2023-03-30T02:01:49;15.40;59.60
27671;DHT22;15077;49.704;9.908;2023-03-30T02:04:25;15.40;59.70
27671;DHT22;15077;49.704;9.908;2023-03-30T02:06:58;15.40;59.70
27671;DHT22;15077;49.704;9.908;2023-03-30T02:09:28;15.40;59.80
27671;DHT22;15077;49.704;9.908;2023-03-30T02:11:58;15.40;59.80
27671;DHT22;15077;49.704;9.908;2023-03-30T02:14:28;15.40;59.80
27671;DHT22;15077;49.704;9.908;2023-03-30T02:17:20;15.40;60.00
27671;DHT22;15077;49.704;9.908;2023-03-30T02:19:48;15.40;60.00
27671;DHT22;15077;49.704;9.908;2023-03-30T02:22:17;15.40;60.00
27671;DHT22;15077;49.704;9.908;2023-03-30T02:24:46;15.40;60.00
27671;DHT22;15077;49.704;9.908;2023-03-30T02:27:14;15.40;60.00
27671;DHT22;15077;49.704;9.908;2023-03-30T02:29:43;15.40;60.00
27671;DHT22;15077;49.704;9.908;2023-03-30T02:32:22;15.40;60.00
27671;DHT22;15077;49.704;9.908;2023-03-30T02:41:26;15.40;60.10
27671;DHT22;15077;49.704;9.908;2023-03-30T02:52:53;15.50;60.20
27671;DHT22;15077;49.704;9.908;2023-03-30T02:58:04;15.50;60.30
27671;DHT22;15077;49.704;9.908;2023-03-30T03:01:03;15.50;60.30
27671;DHT22;15077;49.704;9.908;2023-03-30T03:03:44;15.60;60.40
27671;DHT22;15077;49.704;9.908;2023-03-30T03:06:13;15.60;60.20
27671;DHT22;15077;49.704;9.908;2023-03-30T03:08:43;15.60;60.20
27671;DHT22;15077;49.704;9.908;2023-03-30T03:11:15;15.60;60.20
27671;DHT22;15077;49.704;9.908;2023-03-30T03:13:41;15.70;60.10
27671;DHT22;15077;49.704;9.908;2023-03-30T03:16:12;15.70;60.10
27671;DHT22;15077;49.704;9.908;2023-03-30T03:18:39;15.70;60.10
27671;DHT22;15077;49.704;9.908;2023-03-30T03:21:10;15.70;60.10
27671;DHT22;15077;49.704;9.908;2023-03-30T03:23:38;15.70;60.20
27671;DHT22;15077;49.704;9.908;2023-03-30T03:26:05;15.70;60.10
27671;DHT22;15077;49.704;9.908;2023-03-30T03:28:32;15.80;60.30
27671;DHT22;15077;49.704;9.908;2023-03-30T03:30:58;15.80;60.40
27671;DHT22;15077;49.704;9.908;2023-03-30T03:33:25;15.80;60.50
27671;DHT22;15077;49.704;9.908;2023-03-30T03:35:52;15.80;60.50
27671;DHT22;15077;49.704;9.908;2023-03-30T03:38:22;15.80;60.60
27671;DHT22;15077;49.704;9.908;2023-03-30T03:40:56;15.80;60.70
27671;DHT22;15077;49.704;9.908;2023-03-30T03:43:23;15.80;60.80
27671;DHT22;15077;49.704;9.908;2023-03-30T03:45:50;15.80;60.70
27671;DHT22;15077;49.704;9.908;2023-03-30T03:48:19;15.80;60.90
27671;DHT22;15077;49.704;9.908;2023-03-30T03:50:54;15.80;61.00
27671;DHT22;15077;49.704;9.908;2023-03-30T03:53:25;15.80;61.50
27671;DHT22;15077;49.704;9.908;2023-03-30T03:55:53;15.80;61.50
27671;DHT22;15077;49.704;9.908;2023-03-30T03:58:19;15.80;61.50
27671;DHT22;15077;49.704;9.908;2023-03-30T04:00:47;15.80;61.70
27671;DHT22;15077;49.704;9.908;2023-03-30T04:03:14;15.80;62.30
27671;DHT22;15077;49.704;9.908;2023-03-30T04:05:41;15.80;63.00
27671;DHT22;15077;49.704;9.908;2023-03-30T04:08:08;15.80;63.20
27671;DHT22;15077;49.704;9.908;2023-03-30T04:10:36;15.80;64.00
27671;DHT22;15077;49.704;9.908;2023-03-30T04:13:03;15.80;63.50
27671;DHT22;15077;49.704;9.908;2023-03-30T04:15:28;15.80;63.70
27671;DHT22;15077;49.704;9.908;2023-03-30T04:17:55;15.80;63.80
27671;DHT22;15077;49.704;9.908;2023-03-30T04:20:25;15.70;63.70
27671;DHT22;15077;49.704;9.908;2023-03-30T04:22:52;15.70;63.90
27671;DHT22;15077;49.704;9.908;2023-03-30T04:25:22;15.70;63.90
27671;DHT22;15077;49.704;9.908;2023-03-30T04:27:53;15.70;64.00
27671;DHT22;15077;49.704;9.908;2023-03-30T04:30:21;15.70;63.70
27671;DHT22;15077;49.704;9.908;2023-03-30T04:32:47;15.70;63.70
27671;DHT22;15077;49.704;9.908;2023-03-30T04:35:28;15.70;63.80
27671;DHT22;15077;49.704;9.908;2023-03-30T04:37:58;15.70;63.90
27671;DHT22;15077;49.704;9.908;2023-03-30T04:40:26;15.70;64.20
27671;DHT22;15077;49.704;9.908;2023-03-30T04:42:52;15.70;64.10
27671;DHT22;15077;49.704;9.908;2023-03-30T04:45:18;15.60;64.10
27671;DHT22;15077;49.704;9.908;2023-03-30T04:47:45;15.60;64.00
27671;DHT22;15077;49.704;9.908;2023-03-30T04:50:12;15.60;64.20
27671;DHT22;15077;49.704;9.908;2023-03-30T04:52:38;15.60;64.30
27671;DHT22;15077;49.704;9.908;2023-03-30T04:55:04;15.60;64.30
27671;DHT22;15077;49.704;9.908;2023-03-30T04:57:30;15.60;64.20
27671;DHT22;15077;49.704;9.908;2023-03-30T04:59:56;15.60;64.40
27671;DHT22;15077;49.704;9.908;2023-03-30T05:02:21;15.60;64.50
27671;DHT22;15077;49.704;9.908;2023-03-30T05:04:47;15.60;64.30
27671;DHT22;15077;49.704;9.908;2023-03-30T05:07:13;15.60;64.20
27671;DHT22;15077;49.704;9.908;2023-03-30T05:09:39;15.50;64.10
27671;DHT22;15077;49.704;9.908;2023-03-30T05:12:04;15.50;64.70
27671;DHT22;15077;49.704;9.908;2023-03-30T05:14:30;15.50;63.90
27671;DHT22;15077;49.704;9.908;2023-03-30T05:16:56;15.50;63.90
27671;DHT22;15077;49.704;9.908;2023-03-30T05:19:23;15.50;63.80
27671;DHT22;15077;49.704;9.908;2023-03-30T05:21:49;15.50;63.90
27671;DHT22;15077;49.704;9.908;2023-03-30T05:24:15;15.50;64.40
27671;DHT22;15077;49.704;9.908;2023-03-30T05:26:41;15.50;63.70
27671;DHT22;15077;49.704;9.908;2023-03-30T05:29:07;15.50;63.70
27671;DHT22;15077;49.704;9.908;2023-03-30T05:31:33;15.50;63.60
27671;DHT22;15077;49.704;9.908;2023-03-30T05:33:58;15.60;63.90
27671;DHT22;15077;49.704;9.908;2023-03-30T05:36:24;15.60;64.10
27671;DHT22;15077;49.704;9.908;2023-03-30T05:38:50;15.60;63.90
27671;DHT22;15077;49.704;9.908;2023-03-30T05:41:15;15.50;63.70
27671;DHT22;15077;49.704;9.908;2023-03-30T05:43:41;15.50;63.90
27671;DHT22;15077;49.704;9.908;2023-03-30T05:46:07;15.50;64.00
27671;DHT22;15077;49.704;9.908;2023-03-30T05:48:33;15.50;64.30
27671;DHT22;15077;49.704;9.908;2023-03-30T05:50:58;15.50;64.10
27671;DHT22;15077;49.704;9.908;2023-03-30T05:53:24;15.50;64.20
27671;DHT22;15077;49.704;9.908;2023-03-30T05:55:50;15.50;64.40
27671;DHT22;15077;49.704;9.908;2023-03-30T05:58:16;15.60;64.50
27671;DHT22;15077;49.704;9.908;2023-03-30T06:00:43;15.60;64.80
27671;DHT22;15077;49.704;9.908;2023-03-30T06:03:11;15.60;64.80
27671;DHT22;15077;49.704;9.908;2023-03-30T06:05:38;15.60;64.90
27671;DHT22;15077;49.704;9.908;2023-03-30T06:08:05;15.60;65.30
27671;DHT22;15077;49.704;9.908;2023-03-30T06:10:33;15.60;65.40
27671;DHT22;15077;49.704;9.908;2023-03-30T06:12:59;15.60;65.40
27671;DHT22;15077;49.704;9.908;2023-03-30T06:15:25;15.60;65.50
27671;DHT22;15077;49.704;9.908;2023-03-30T06:17:52;15.60;65.70
27671;DHT22;15077;49.704;9.908;2023-03-30T06:20:18;15.50;65.40
27671;DHT22;15077;49.704;9.908;2023-03-30T06:22:47;15.60;65.40
27671;DHT22;15077;49.704;9.908;2023-03-30T06:25:13;15.50;65.60
27671;DHT22;15077;49.704;9.908;2023-03-30T06:27:40;15.50;65.60
27671;DHT22;15077;49.704;9.908;2023-03-30T06:30:06;15.60;65.60
27671;DHT22;15077;49.704;9.908;2023-03-30T06:32:36;15.50;66.00
27671;DHT22;15077;49.704;9.908;2023-03-30T06:35:02;15.50;66.20
27671;DHT22;15077;49.704;9.908;2023-03-30T06:37:32;15.50;66.60
27671;DHT22;15077;49.704;9.908;2023-03-30T06:39:59;15.50;66.50
27671;DHT22;15077;49.704;9.908;2023-03-30T06:42:28;15.50;66.90
27671;DHT22;15077;49.704;9.908;2023-03-30T06:44:53;15.50;66.70
27671;DHT22;15077;49.704;9.908;2023-03-30T06:47:19;15.40;66.70
27671;DHT22;15077;49.704;9.908;2023-03-30T06:49:46;15.40;66.70
27671;DHT22;15077;49.704;9.908;2023-03-30T06:52:13;15.40;67.00
27671;DHT22;15077;49.704;9.908;2023-03-30T06:54:38;15.40;67.10
27671;DHT22;15077;49.704;9.908;2023-03-30T06:57:04;15.40;67.50
27671;DHT22;15077;49.704;9.908;2023-03-30T06:59:30;15.40;67.70
27671;DHT22;15077;49.704;9.908;2023-03-30T07:01:58;15.40;67.90
27671;DHT22;15077;49.704;9.908;2023-03-30T07:04:24;15.40;67.90
27671;DHT22;15077;49.704;9.908;2023-03-30T07:06:50;15.40;68.10
27671;DHT22;15077;49.704;9.908;2023-03-30T07:09:16;15.40;68.40
27671;DHT22;15077;49.704;9.908;2023-03-30T07:11:42;15.40;68.40
27671;DHT22;15077;49.704;9.908;2023-03-30T07:14:08;15.40;68.80
27671;DHT22;15077;49.704;9.908;2023-03-30T07:16:36;15.40;68.40
27671;DHT22;15077;49.704;9.908;2023-03-30T07:19:03;15.40;68.40
27671;DHT22;15077;49.704;9.908;2023-03-30T07:21:30;15.40;68.40
27671;DHT22;15077;49.704;9.908;2023-03-30T07:23:56;15.40;68.30
27671;DHT22;15077;49.704;9.908;2023-03-30T07:26:26;15.40;68.30
27671;DHT22;15077;49.704;9.908;2023-03-30T07:28:53;15.40;68.60
27671;DHT22;15077;49.704;9.908;2023-03-30T07:31:21;15.40;68.60
27671;DHT22;15077;49.704;9.908;2023-03-30T07:33:49;15.40;69.00
27671;DHT22;15077;49.704;9.908;2023-03-30T07:36:15;15.40;68.70
27671;DHT22;15077;49.704;9.908;2023-03-30T07:38:41;15.40;68.60
27671;DHT22;15077;49.704;9.908;2023-03-30T07:41:08;15.40;68.60
27671;DHT22;15077;49.704;9.908;2023-03-30T07:43:36;15.40;68.60
27671;DHT22;15077;49.704;9.908;2023-03-30T07:46:02;15.40;68.50
27671;DHT22;15077;49.704;9.908;2023-03-30T07:48:28;15.40;69.00
27671;DHT22;15077;49.704;9.908;2023-03-30T07:51:05;15.40;68.90
27671;DHT22;15077;49.704;9.908;2023-03-30T07:53:32;15.50;69.50
27671;DHT22;15077;49.704;9.908;2023-03-30T07:55:58;15.50;69.40
27671;DHT22;15077;49.704;9.908;2023-03-30T07:58:24;15.50;69.40
27671;DHT22;15077;49.704;9.908;2023-03-30T08:00:52;15.50;69.80
27671;DHT22;15077;49.704;9.908;2023-03-30T08:03:19;15.40;70.30
27671;DHT22;15077;49.704;9.908;2023-03-30T08:05:57;15.40;70.40
27671;DHT22;15077;49.704;9.908;2023-03-30T08:08:26;15.40;70.70
27671;DHT22;15077;49.704;9.908;2023-03-30T08:10:52;15.40;70.60
27671;DHT22;15077;49.704;9.908;2023-03-30T08:13:18;15.40;71.40
27671;DHT22;15077;49.704;9.908;2023-03-30T08:15:45;15.40;70.90
27671;DHT22;15077;49.704;9.908;2023-03-30T08:18:11;15.40;71.30
27671;DHT22;15077;49.704;9.908;2023-03-30T08:20:39;15.40;71.30
27671;DHT22;15077;49.704;9.908;2023-03-30T08:23:07;15.40;71.90
27671;DHT22;15077;49.704;9.908;2023-03-30T08:25:33;15.50;72.20
27671;DHT22;15077;49.704;9.908;2023-03-30T08:27:59;15.50;72.60
27671;DHT22;15077;49.704;9.908;2023-03-30T08:30:26;15.50;72.30
27671;DHT22;15077;49.704;9.908;2023-03-30T08:32:52;15.50;72.40
27671;DHT22;15077;49.704;9.908;2023-03-30T08:35:19;15.50;72.20
27671;DHT22;15077;49.704;9.908;2023-03-30T08:37:46;15.60;72.30
27671;DHT22;15077;49.704;9.908;2023-03-30T08:40:13;15.60;72.40
27671;DHT22;15077;49.704;9.908;2023-03-30T08:45:40;15.60;73.00
27671;DHT22;15077;49.704;9.908;2023-03-30T08:48:17;15.60;72.90
27671;DHT22;15077;49.704;9.908;2023-03-30T08:50:57;15.60;72.90
27671;DHT22;15077;49.704;9.908;2023-03-30T08:53:30;15.60;72.90
27671;DHT22;15077;49.704;9.908;2023-03-30T08:56:04;15.60;73.60
27671;DHT22;15077;49.704;9.908;2023-03-30T09:02:22;15.60;73.20
27671;DHT22;15077;49.704;9.908;2023-03-30T09:05:14;15.50;73.70
27671;DHT22;15077;49.704;9.908;2023-03-30T09:07:51;15.50;73.80
27671;DHT22;15077;49.704;9.908;2023-03-30T09:10:32;15.50;74.40
27671;DHT22;15077;49.704;9.908;2023-03-30T09:13:04;15.50;74.20
27671;DHT22;15077;49.704;9.908;2023-03-30T09:15:39;15.50;74.20
27671;DHT22;15077;49.704;9.908;2023-03-30T09:18:30;15.50;74.60
27671;DHT22;15077;49.704;9.908;2023-03-30T09:21:04;15.50;74.70
27671;DHT22;15077;49.704;9.908;2023-03-30T09:23:31;15.50;74.30
27671;DHT22;15077;49.704;9.908;2023-03-30T09:26:09;15.50;74.20
27671;DHT22;15077;49.704;9.908;2023-03-30T09:29:25;15.60;74.40
27671;DHT22;15077;49.704;9.908;2023-03-30T09:32:13;15.70;74.80
27671;DHT22;15077;49.704;9.908;2023-03-30T09:34:46;15.70;74.60
27671;DHT22;15077;49.704;9.908;2023-03-30T09:37:19;15.70;74.30
27671;DHT22;15077;49.704;9.908;2023-03-30T09:39:47;15.80;74.10
27671;DHT22;15077;49.704;9.908;2023-03-30T09:45:27;15.80;74.20
27671;DHT22;15077;49.704;9.908;2023-03-30T09:47:57;15.80;73.90
27671;DHT22;15077;49.704;9.908;2023-03-30T09:50:28;15.80;73.30
27671;DHT22;15077;49.704;9.908;2023-03-30T09:53:04;15.80;73.30
27671;DHT22;15077;49.704;9.908;2023-03-30T09:55:35;15.90;73.50
27671;DHT22;15077;49.704;9.908;2023-03-30T09:58:19;15.90;73.30
27671;DHT22;15077;49.704;9.908;2023-03-30T10:01:02;15.90;73.70
27671;DHT22;15077;49.704;9.908;2023-03-30T10:03:28;15.90;73.40
27671;DHT22;15077;49.704;9.908;2023-03-30T10:06:06;15.90;73.20
27671;DHT22;15077;49.704;9.908;2023-03-30T10:08:49;15.90;73.20
27671;DHT22;15077;49.704;9.908;2023-03-30T10:11:19;15.90;73.10
27671;DHT22;15077;49.704;9.908;2023-03-30T10:13:53;15.90;73.10
27671;DHT22;15077;49.704;9.908;2023-03-30T10:16:27;15.90;73.00
27671;DHT22;15077;49.704;9.908;2023-03-30T10:19:02;15.90;73.20
27671;DHT22;15077;49.704;9.908;2023-03-30T10:21:40;16.00;73.10
27671;DHT22;15077;49.704;9.908;2023-03-30T10:26:44;16.10;73.30
27671;DHT22;15077;49.704;9.908;2023-03-30T10:29:18;16.10;73.40
27671;DHT22;15077;49.704;9.908;2023-03-30T10:31:49;16.10;73.50
27671;DHT22;15077;49.704;9.908;2023-03-30T10:34:44;16.20;73.20
27671;DHT22;15077;49.704;9.908;2023-03-30T10:37:37;16.20;73.40
27671;DHT22;15077;49.704;9.908;2023-03-30T10:40:27;16.30;73.80
27671;DHT22;15077;49.704;9.908;2023-03-30T10:42:57;16.30;72.80
27671;DHT22;15077;49.704;9.908;2023-03-30T10:48:28;16.40;72.60
27671;DHT22;15077;49.704;9.908;2023-03-30T10:54:15;16.40;72.00
27671;DHT22;15077;49.704;9.908;2023-03-30T10:56:47;16.40;71.90
27671;DHT22;15077;49.704;9.908;2023-03-30T11:02:40;16.40;71.90
27671;DHT22;15077;49.704;9.908;2023-03-30T11:05:28;16.50;71.70
27671;DHT22;15077;49.704;9.908;2023-03-30T11:08:07;16.50;71.40
27671;DHT22;15077;49.704;9.908;2023-03-30T11:10:40;16.50;71.20
27671;DHT22;15077;49.704;9.908;2023-03-30T11:13:11;16.50;71.20
27671;DHT22;15077;49.704;9.908;2023-03-30T11:16:13;16.60;70.90
27671;DHT22;15077;49.704;9.908;2023-03-30T11:19:02;16.60;70.20
27671;DHT22;15077;49.704;9.908;2023-03-30T11:21:45;16.60;69.90
27671;DHT22;15077;49.704;9.908;2023-03-30T11:24:22;16.70;70.20
27671;DHT22;15077;49.704;9.908;2023-03-30T11:29:48;16.80;69.80
27671;DHT22;15077;49.704;9.908;2023-03-30T11:32:45;16.80;69.10
27671;DHT22;15077;49.704;9.908;2023-03-30T11:35:32;16.80;69.30
27671;DHT22;15077;49.704;9.908;2023-03-30T11:40:59;16.90;69.20
27671;DHT22;15077;49.704;9.908;2023-03-30T11:43:30;17.00;69.10
27671;DHT22;15077;49.704;9.908;2023-03-30T11:54:18;17.20;68.10
27671;DHT22;15077;49.704;9.908;2023-03-30T11:56:58;17.30;68.00
27671;DHT22;15077;49.704;9.908;2023-03-30T11:59:32;17.30;67.50
27671;DHT22;15077;49.704;9.908;2023-03-30T12:07:34;17.30;67.20
27671;DHT22;15077;49.704;9.908;2023-03-30T12:10:19;17.40;67.30
27671;DHT22;15077;49.704;9.908;2023-03-30T12:12:54;17.40;66.90
27671;DHT22;15077;49.704;9.908;2023-03-30T12:15:39;17.40;67.40
27671;DHT22;15077;49.704;9.908;2023-03-30T12:24:15;17.50;67.10
27671;DHT22;15077;49.704;9.908;2023-03-30T12:26:48;17.50;67.60
27671;DHT22;15077;49.704;9.908;2023-03-30T12:29:15;17.60;67.30
27671;DHT22;15077;49.704;9.908;2023-03-30T12:34:14;17.70;66.40
27671;DHT22;15077;49.704;9.908;2023-03-30T12:37:11;17.80;66.50
27671;DHT22;15077;49.704;9.908;2023-03-30T12:43:00;17.90;66.40
27671;DHT22;15077;49.704;9.908;2023-03-30T12:54:19;18.10;65.50
27671;DHT22;15077;49.704;9.908;2023-03-30T12:57:22;18.20;64.60
27671;DHT22;15077;49.704;9.908;2023-03-30T13:06:29;18.40;62.30
27671;DHT22;15077;49.704;9.908;2023-03-30T13:09:49;18.50;63.40
27671;DHT22;15077;49.704;9.908;2023-03-30T13:14:25;18.70;63.60
27671;DHT22;15077;49.704;9.908;2023-03-30T13:19:25;18.80;61.70
27671;DHT22;15077;49.704;9.908;2023-03-30T13:29:38;19.00;60.70
27671;DHT22;15077;49.704;9.908;2023-03-30T13:32:41;19.00;60.20
27671;DHT22;15077;49.704;9.908;2023-03-30T13:50:03;18.90;59.60
27671;DHT22;15077;49.704;9.908;2023-03-30T13:52:43;18.80;59.40
27671;DHT22;15077;49.704;9.908;2023-03-30T13:58:22;18.60;59.10
27671;DHT22;15077;49.704;9.908;2023-03-30T14:01:04;18.40;59.90
27671;DHT22;15077;49.704;9.908;2023-03-30T14:03:55;18.20;60.40
27671;DHT22;15077;49.704;9.908;2023-03-30T14:06:27;17.90;61.50
27671;DHT22;15077;49.704;9.908;2023-03-30T14:11:40;17.60;62.70
27671;DHT22;15077;49.704;9.908;2023-03-30T14:14:26;17.50;63.10
27671;DHT22;15077;49.704;9.908;2023-03-30T14:17:00;17.50;63.70
27671;DHT22;15077;49.704;9.908;2023-03-30T14:19:40;17.50;63.90
27671;DHT22;15077;49.704;9.908;2023-03-30T14:22:18;17.50;64.10
27671;DHT22;15077;49.704;9.908;2023-03-30T14:25:04;17.50;64.60
27671;DHT22;15077;49.704;9.908;2023-03-30T14:27:45;17.60;64.80
27671;DHT22;15077;49.704;9.908;2023-03-30T14:32:44;17.70;64.50
27671;DHT22;15077;49.704;9.908;2023-03-30T14:35:15;17.70;64.50
27671;DHT22;15077;49.704;9.908;2023-03-30T14:37:42;17.70;64.80
27671;DHT22;15077;49.704;9.908;2023-03-30T14:40:19;17.70;65.10
27671;DHT22;15077;49.704;9.908;2023-03-30T14:42:49;17.70;65.60
27671;DHT22;15077;49.704;9.908;2023-03-30T14:45:16;17.80;66.70
27671;DHT22;15077;49.704;9.908;2023-03-30T14:47:45;17.90;66.90
27671;DHT22;15077;49.704;9.908;2023-03-30T14:50:14;18.00;66.10
27671;DHT22;15077;49.704;9.908;2023-03-30T14:52:44;18.10;66.40
27671;DHT22;15077;49.704;9.908;2023-03-30T14:55:15;18.20;66.60
27671;DHT22;15077;49.704;9.908;2023-03-30T14:57:46;18.30;65.90
27671;DHT22;15077;49.704;9.908;2023-03-30T15:00:18;18.50;65.70
27671;DHT22;15077;49.704;9.908;2023-03-30T15:02:54;18.50;65.80
27671;DHT22;15077;49.704;9.908;2023-03-30T15:05:24;18.60;64.80
27671;DHT22;15077;49.704;9.908;2023-03-30T15:07:54;18.70;64.80
27671;DHT22;15077;49.704;9.908;2023-03-30T15:10:35;18.70;64.70
27671;DHT22;15077;49.704;9.908;2023-03-30T15:13:17;18.80;64.10
27671;DHT22;15077;49.704;9.908;2023-03-30T15:16:05;18.90;64.40
27671;DHT22;15077;49.704;9.908;2023-03-30T15:18:35;19.00;63.20
27671;DHT22;15077;49.704;9.908;2023-03-30T15:21:01;19.00;63.30
27671;DHT22;15077;49.704;9.908;2023-03-30T15:23:35;19.10;61.30
27671;DHT22;15077;49.704;9.908;2023-03-30T15:26:06;19.20;61.50
27671;DHT22;15077;49.704;9.908;2023-03-30T15:28:39;19.20;61.70
27671;DHT22;15077;49.704;9.908;2023-03-30T15:31:11;19.30;61.30
27671;DHT22;15077;49.704;9.908;2023-03-30T15:36:36;19.30;60.80
27671;DHT22;15077;49.704;9.908;2023-03-30T15:39:16;19.30;60.50
27671;DHT22;15077;49.704;9.908;2023-03-30T15:42:04;19.30;60.80
27671;DHT22;15077;49.704;9.908;2023-03-30T15:44:36;19.30;61.20
27671;DHT22;15077;49.704;9.908;2023-03-30T15:47:13;19.20;61.10
27671;DHT22;15077;49.704;9.908;2023-03-30T15:49:45;19.20;60.90
27671;DHT22;15077;49.704;9.908;2023-03-30T15:52:28;19.20;60.80
27671;DHT22;15077;49.704;9.908;2023-03-30T15:55:05;19.10;60.40
27671;DHT22;15077;49.704;9.908;2023-03-30T15:57:46;19.10;60.60
27671;DHT22;15077;49.704;9.908;2023-03-30T16:00:18;19.00;60.00
27671;DHT22;15077;49.704;9.908;2023-03-30T16:02:54;19.00;57.50
27671;DHT22;15077;49.704;9.908;2023-03-30T16:05:29;18.80;57.30
27671;DHT22;15077;49.704;9.908;2023-03-30T16:07:58;18.70;58.00
27671;DHT22;15077;49.704;9.908;2023-03-30T16:10:27;18.50;58.60
27671;DHT22;15077;49.704;9.908;2023-03-30T16:12:55;18.30;59.40
27671;DHT22;15077;49.704;9.908;2023-03-30T16:15:24;18.10;59.20
27671;DHT22;15077;49.704;9.908;2023-03-30T16:17:52;18.00;59.80
27671;DHT22;15077;49.704;9.908;2023-03-30T16:20:24;17.90;60.30
27671;DHT22;15077;49.704;9.908;2023-03-30T16:22:53;17.80;60.40
27671;DHT22;15077;49.704;9.908;2023-03-30T16:25:21;17.70;60.20
27671;DHT22;15077;49.704;9.908;2023-03-30T16:27:50;17.70;60.50
27671;DHT22;15077;49.704;9.908;2023-03-30T16:30:27;17.60;60.70
27671;DHT22;15077;49.704;9.908;2023-03-30T16:32:55;17.60;61.00
27671;DHT22;15077;49.704;9.908;2023-03-30T16:35:21;17.60;61.50
27671;DHT22;15077;49.704;9.908;2023-03-30T16:37:47;17.60;60.80
27671;DHT22;15077;49.704;9.908;2023-03-30T16:43:00;17.50;60.60
27671;DHT22;15077;49.704;9.908;2023-03-30T16:45:26;17.50;60.90
27671;DHT22;15077;49.704;9.908;2023-03-30T16:47:52;17.50;60.30
27671;DHT22;15077;49.704;9.908;2023-03-30T16:50:32;17.50;60.30
27671;DHT22;15077;49.704;9.908;2023-03-30T16:53:01;17.40;60.40
27671;DHT22;15077;49.704;9.908;2023-03-30T16:55:27;17.40;60.20
27671;DHT22;15077;49.704;9.908;2023-03-30T16:57:52;17.40;60.10
27671;DHT22;15077;49.704;9.908;2023-03-30T17:00:21;17.30;60.00
27671;DHT22;15077;49.704;9.908;2023-03-30T17:02:49;17.30;60.10
27671;DHT22;15077;49.704;9.908;2023-03-30T17:05:15;17.20;60.20
27671;DHT22;15077;49.704;9.908;2023-03-30T17:07:41;17.20;60.80
27671;DHT22;15077;49.704;9.908;2023-03-30T17:10:35;17.10;60.40
27671;DHT22;15077;49.704;9.908;2023-03-30T17:13:04;17.10;60.40
27671;DHT22;15077;49.704;9.908;2023-03-30T17:15:30;17.10;60.40
27671;DHT22;15077;49.704;9.908;2023-03-30T17:17:59;17.00;60.40
27671;DHT22;15077;49.704;9.908;2023-03-30T17:20:34;17.00;60.60
27671;DHT22;15077;49.704;9.908;2023-03-30T17:23:02;17.00;60.70
27671;DHT22;15077;49.704;9.908;2023-03-30T17:25:29;17.00;60.80
27671;DHT22;15077;49.704;9.908;2023-03-30T17:27:56;17.00;60.80
27671;DHT22;15077;49.704;9.908;2023-03-30T17:30:29;16.90;60.90
27671;DHT22;15077;49.704;9.908;2023-03-30T17:33:02;16.90;60.90
27671;DHT22;15077;49.704;9.908;2023-03-30T17:35:27;16.90;61.00
27671;DHT22;15077;49.704;9.908;2023-03-30T17:37:53;16.90;61.00
27671;DHT22;15077;49.704;9.908;2023-03-30T17:40:28;16.90;61.00
27671;DHT22;15077;49.704;9.908;2023-03-30T17:42:55;16.90;61.00
27671;DHT22;15077;49.704;9.908;2023-03-30T17:45:24;16.90;61.00
27671;DHT22;15077;49.704;9.908;2023-03-30T17:47:51;16.90;60.90
27671;DHT22;15077;49.704;9.908;2023-03-30T17:52:56;16.90;60.90
27671;DHT22;15077;49.704;9.908;2023-03-30T17:55:24;16.90;60.90
27671;DHT22;15077;49.704;9.908;2023-03-30T17:57:52;16.90;60.80
27671;DHT22;15077;49.704;9.908;2023-03-30T18:00:23;16.90;60.90
27671;DHT22;15077;49.704;9.908;2023-03-30T18:02:58;16.80;60.70
27671;DHT22;15077;49.704;9.908;2023-03-30T18:05:30;16.80;60.70
27671;DHT22;15077;49.704;9.908;2023-03-30T18:07:57;16.80;60.50
27671;DHT22;15077;49.704;9.908;2023-03-30T18:10:32;16.80;60.60
27671;DHT22;15077;49.704;9.908;2023-03-30T18:13:00;16.70;60.70
27671;DHT22;15077;49.704;9.908;2023-03-30T18:15:26;16.70;60.80
27671;DHT22;15077;49.704;9.908;2023-03-30T18:17:53;16.70;61.00
27671;DHT22;15077;49.704;9.908;2023-03-30T18:22:51;16.60;61.10
27671;DHT22;15077;49.704;9.908;2023-03-30T18:25:18;16.60;61.10
27671;DHT22;15077;49.704;9.908;2023-03-30T18:27:45;16.60;61.10
27671;DHT22;15077;49.704;9.908;2023-03-30T18:30:20;16.50;61.10
27671;DHT22;15077;49.704;9.908;2023-03-30T18:32:48;16.50;61.20
27671;DHT22;15077;49.704;9.908;2023-03-30T18:35:15;16.50;61.30
27671;DHT22;15077;49.704;9.908;2023-03-30T18:37:41;16.40;61.30